Skip to contentWorkspace of oi-userland on Built-In Node
| build |
| files |
| firefox-155.0.1 |
| manifests |
| patches |
| .gitignore | Aug 19, 2025, 2:17:06 AM | 6 B | |
| ach.xpi | Sep 4, 2026, 11:46:38 PM | 360.17 KiB | |
| af.xpi | Sep 4, 2026, 11:46:38 PM | 346.72 KiB | |
| an.xpi | Sep 4, 2026, 11:46:38 PM | 388.29 KiB | |
| ar.xpi | Sep 4, 2026, 11:46:39 PM | 530.13 KiB | |
| ast.xpi | Sep 4, 2026, 11:46:39 PM | 383.41 KiB | |
| az.xpi | Sep 4, 2026, 11:46:40 PM | 399.68 KiB | |
| be.xpi | Sep 4, 2026, 11:46:40 PM | 595.47 KiB | |
| bg.xpi | Sep 4, 2026, 11:46:40 PM | 507.39 KiB | |
| bn.xpi | Sep 4, 2026, 11:46:41 PM | 457.75 KiB | |
| br.xpi | Sep 4, 2026, 11:46:41 PM | 430.35 KiB | |
| bs.xpi | Sep 4, 2026, 11:46:41 PM | 463.75 KiB | |
| ca.xpi | Sep 4, 2026, 11:46:42 PM | 483.77 KiB | |
| cak.xpi | Sep 4, 2026, 11:46:42 PM | 432.64 KiB | |
| ca-valencia.xpi | Sep 4, 2026, 11:46:42 PM | 408.49 KiB | |
| cs.xpi | Sep 4, 2026, 11:46:43 PM | 545.34 KiB | |
| cy.xpi | Sep 4, 2026, 11:46:43 PM | 504.09 KiB | |
| da.xpi | Sep 4, 2026, 11:46:43 PM | 476.00 KiB | |
| de.xpi | Sep 4, 2026, 11:46:44 PM | 515.54 KiB | |
| dsb.xpi | Sep 4, 2026, 11:46:44 PM | 530.37 KiB | |
| el.xpi | Sep 4, 2026, 11:46:44 PM | 611.92 KiB | |
| en-CA.xpi | Sep 4, 2026, 11:46:45 PM | 465.17 KiB | |
| en-GB.xpi | Sep 4, 2026, 11:46:45 PM | 465.43 KiB | |
| en-US.xpi | Sep 4, 2026, 11:46:45 PM | 667.95 KiB | |
| eo.xpi | Sep 4, 2026, 11:46:46 PM | 492.26 KiB | |
| es-AR.xpi | Sep 4, 2026, 11:46:46 PM | 505.06 KiB | |
| es-CL.xpi | Sep 4, 2026, 11:46:46 PM | 507.32 KiB | |
| es-ES.xpi | Sep 4, 2026, 11:46:47 PM | 495.97 KiB | |
| es-MX.xpi | Sep 4, 2026, 11:46:47 PM | 506.69 KiB | |
| et.xpi | Sep 4, 2026, 11:46:48 PM | 398.25 KiB | |
| eu.xpi | Sep 4, 2026, 11:46:48 PM | 490.41 KiB | |
| fa.xpi | Sep 4, 2026, 11:46:48 PM | 464.16 KiB | |
| ff.xpi | Sep 4, 2026, 11:46:49 PM | 371.48 KiB | |
| fi.xpi | Sep 4, 2026, 11:46:49 PM | 494.48 KiB | |
| firefox.license | Sep 5, 2026, 1:39:32 AM | 255.04 KiB | |
| firefox.p5m | Sep 1, 2026, 10:35:42 PM | 16.47 KiB | |
| fr.xpi | Sep 4, 2026, 11:46:49 PM | 521.67 KiB | |
| fur.xpi | Sep 4, 2026, 11:46:50 PM | 497.11 KiB | |
| fy-NL.xpi | Sep 4, 2026, 11:46:50 PM | 501.60 KiB | |
| ga-IE.xpi | Sep 4, 2026, 11:46:50 PM | 383.01 KiB | |
| gd.xpi | Sep 4, 2026, 11:46:51 PM | 438.81 KiB | |
| gl.xpi | Sep 4, 2026, 11:46:51 PM | 460.17 KiB | |
| gn.xpi | Sep 4, 2026, 11:46:52 PM | 510.14 KiB | |
| gu-IN.xpi | Sep 4, 2026, 11:46:52 PM | 417.68 KiB | |
| he.xpi | Sep 4, 2026, 11:46:52 PM | 518.23 KiB | |
| hi-IN.xpi | Sep 4, 2026, 11:46:53 PM | 431.76 KiB | |
| history | Aug 19, 2025, 2:17:06 AM | 51 B | |
| hr.xpi | Sep 4, 2026, 11:46:53 PM | 485.92 KiB | |
| hsb.xpi | Sep 4, 2026, 11:46:53 PM | 526.91 KiB | |
| hu.xpi | Sep 4, 2026, 11:46:54 PM | 530.96 KiB | |
| hy-AM.xpi | Sep 4, 2026, 11:46:54 PM | 533.19 KiB | |
| ia.xpi | Sep 4, 2026, 11:46:55 PM | 488.29 KiB | |
| id.xpi | Sep 4, 2026, 11:46:55 PM | 449.77 KiB | |
| is.xpi | Sep 4, 2026, 11:46:55 PM | 463.59 KiB | |
| it.xpi | Sep 4, 2026, 11:46:55 PM | 501.10 KiB | |
| ja.xpi | Sep 4, 2026, 11:46:56 PM | 546.34 KiB | |
| ka.xpi | Sep 4, 2026, 11:46:56 PM | 560.42 KiB | |
| kab.xpi | Sep 4, 2026, 11:46:57 PM | 449.93 KiB | |
| kk.xpi | Sep 4, 2026, 11:46:57 PM | 586.31 KiB | |
| km.xpi | Sep 4, 2026, 11:46:57 PM | 435.90 KiB | |
| kn.xpi | Sep 4, 2026, 11:46:58 PM | 400.86 KiB | |
| ko.xpi | Sep 4, 2026, 11:46:58 PM | 530.15 KiB | |
| lij.xpi | Sep 4, 2026, 11:46:58 PM | 379.89 KiB | |
| lt.xpi | Sep 4, 2026, 11:46:59 PM | 419.45 KiB | |
| lv.xpi | Sep 4, 2026, 11:46:59 PM | 445.53 KiB | |
| Makefile | Sep 4, 2026, 11:46:09 PM | 11.22 KiB | |
| mk.xpi | Sep 4, 2026, 11:46:59 PM | 431.29 KiB | |
| mr.xpi | Sep 4, 2026, 11:47:00 PM | 415.26 KiB | |
| ms.xpi | Sep 4, 2026, 11:47:00 PM | 378.41 KiB | |
| my.xpi | Sep 4, 2026, 11:47:01 PM | 411.97 KiB | |
| nb-NO.xpi | Sep 4, 2026, 11:47:01 PM | 487.21 KiB | |
| ne-NP.xpi | Sep 4, 2026, 11:47:01 PM | 413.08 KiB | |
| nl.xpi | Sep 4, 2026, 11:47:02 PM | 495.36 KiB | |
| nn-NO.xpi | Sep 4, 2026, 11:47:02 PM | 490.88 KiB | |
| oc.xpi | Sep 4, 2026, 11:47:02 PM | 442.14 KiB | |
| pa-IN.xpi | Sep 4, 2026, 11:47:03 PM | 579.22 KiB | |
| pkg5 | Sep 5, 2026, 1:39:40 AM | 1.11 KiB | |
| pl.xpi | Sep 4, 2026, 11:47:03 PM | 528.28 KiB | |
| pt-BR.xpi | Sep 4, 2026, 11:47:03 PM | 500.19 KiB | |
| pt-PT.xpi | Sep 4, 2026, 11:47:04 PM | 492.19 KiB | |
| rm.xpi | Sep 4, 2026, 11:47:04 PM | 468.52 KiB | |
| ro.xpi | Sep 4, 2026, 11:47:04 PM | 514.88 KiB | |
| ru.xpi | Sep 4, 2026, 11:47:05 PM | 599.31 KiB | |
| sat.xpi | Sep 4, 2026, 11:47:05 PM | 502.37 KiB | |
| sc.xpi | Sep 4, 2026, 11:47:05 PM | 474.02 KiB | |
| sco.xpi | Sep 4, 2026, 11:47:06 PM | 383.24 KiB | |
| si.xpi | Sep 4, 2026, 11:47:06 PM | 459.25 KiB | |
| sk.xpi | Sep 4, 2026, 11:47:06 PM | 534.83 KiB | |
| skr.xpi | Sep 4, 2026, 11:47:07 PM | 505.32 KiB | |
| sl.xpi | Sep 4, 2026, 11:47:07 PM | 500.62 KiB | |
| son.xpi | Sep 4, 2026, 11:47:08 PM | 346.28 KiB | |
| sq.xpi | Sep 4, 2026, 11:47:08 PM | 496.20 KiB | |
| sr.xpi | Sep 4, 2026, 11:47:08 PM | 570.51 KiB | |
| sv-SE.xpi | Sep 4, 2026, 11:47:09 PM | 494.58 KiB | |
| szl.xpi | Sep 4, 2026, 11:47:09 PM | 402.06 KiB | |
| ta.xpi | Sep 4, 2026, 11:47:09 PM | 403.96 KiB | |
| te.xpi | Sep 4, 2026, 11:47:10 PM | 441.98 KiB | |
| tg.xpi | Sep 4, 2026, 11:47:10 PM | 573.02 KiB | |
| th.xpi | Sep 4, 2026, 11:47:10 PM | 559.07 KiB | |
| tl.xpi | Sep 4, 2026, 11:47:11 PM | 399.63 KiB | |
| tr.xpi | Sep 4, 2026, 11:47:11 PM | 509.11 KiB | |
| trs.xpi | Sep 4, 2026, 11:47:12 PM | 390.43 KiB | |
| uk.xpi | Sep 4, 2026, 11:47:12 PM | 577.49 KiB | |
| ur.xpi | Sep 4, 2026, 11:47:12 PM | 424.56 KiB | |
| uz.xpi | Sep 4, 2026, 11:47:13 PM | 372.75 KiB | |
| vi.xpi | Sep 4, 2026, 11:47:13 PM | 535.09 KiB | |
| xh.xpi | Sep 4, 2026, 11:47:13 PM | 351.82 KiB | |
| zh-CN.xpi | Sep 4, 2026, 11:47:14 PM | 520.72 KiB | |
| zh-TW.xpi | Sep 4, 2026, 11:47:14 PM | 526.67 KiB | |
|